createdAt,value
2022-10-05T00:01:53.020Z,76.50
2022-10-05T00:04:24.400Z,76.50
2022-10-05T00:06:56.046Z,76.40
2022-10-05T00:09:22.880Z,76.50
2022-10-05T00:11:50.910Z,76.50
2022-10-05T00:14:21.834Z,76.40
2022-10-05T00:16:49.238Z,76.50
2022-10-05T00:19:37.412Z,76.50
2022-10-05T00:22:20.556Z,76.40
2022-10-05T00:24:50.293Z,76.40
2022-10-05T00:27:37.456Z,76.40
2022-10-05T00:30:19.080Z,76.30
2022-10-05T00:32:46.079Z,76.40
2022-10-05T00:35:14.538Z,76.40
2022-10-05T00:37:41.943Z,76.30
2022-10-05T00:40:32.689Z,76.40
2022-10-05T00:43:02.383Z,76.40
2022-10-05T00:45:39.573Z,76.40
2022-10-05T00:48:25.121Z,76.50
2022-10-05T00:50:59.226Z,76.60
2022-10-05T00:53:57.659Z,76.50
2022-10-05T00:56:33.419Z,76.70
2022-10-05T00:59:24.635Z,76.70
2022-10-05T01:02:06.203Z,76.80
2022-10-05T01:04:57.600Z,76.80
2022-10-05T01:07:56.068Z,76.80
2022-10-05T01:10:53.569Z,76.80
2022-10-05T01:13:45.501Z,76.90
2022-10-05T01:16:47.372Z,77.10
2022-10-05T01:19:29.248Z,77.10
2022-10-05T01:22:28.604Z,77.40
2022-10-05T01:25:36.637Z,77.50
2022-10-05T01:28:13.206Z,77.40
2022-10-05T01:31:05.871Z,77.40
2022-10-05T01:34:11.555Z,77.30
2022-10-05T01:36:59.088Z,77.40
2022-10-05T01:40:17.004Z,77.60
2022-10-05T01:43:22.440Z,77.50
2022-10-05T01:46:06.451Z,77.60
2022-10-05T01:49:17.310Z,77.70
2022-10-05T01:52:02.812Z,77.70
2022-10-05T01:54:39.717Z,77.60
2022-10-05T01:57:37.785Z,77.80
2022-10-05T02:00:09.027Z,77.70
2022-10-05T02:02:47.397Z,77.80
2022-10-05T02:05:18.127Z,77.90
2022-10-05T02:08:09.485Z,78.00
2022-10-05T02:10:42.130Z,78.00
2022-10-05T02:13:22.763Z,78.00
2022-10-05T02:16:01.562Z,78.00
2022-10-05T02:18:33.616Z,78.10
2022-10-05T02:21:05.236Z,78.90
2022-10-05T02:23:35.832Z,77.90
2022-10-05T02:26:03.476Z,77.90
2022-10-05T02:28:50.109Z,77.90
2022-10-05T02:31:24.874Z,78.00
2022-10-05T02:33:51.631Z,78.00
2022-10-05T02:36:36.283Z,78.00
2022-10-05T02:39:35.104Z,78.10
2022-10-05T02:42:32.524Z,78.10
2022-10-05T02:45:10.785Z,78.20
2022-10-05T02:47:53.683Z,78.30
2022-10-05T02:50:51.090Z,78.30
2022-10-05T02:53:26.602Z,78.30
2022-10-05T02:56:27.194Z,78.40
2022-10-05T02:59:21.810Z,78.40
2022-10-05T03:02:10.128Z,78.40
2022-10-05T03:04:55.296Z,78.40
2022-10-05T03:07:37.588Z,78.60
2022-10-05T03:10:22.046Z,78.50
2022-10-05T03:13:05.172Z,78.60
2022-10-05T03:15:56.322Z,78.60
2022-10-05T03:18:37.645Z,78.40
2022-10-05T03:21:42.367Z,78.40
2022-10-05T03:24:43.620Z,78.30
2022-10-05T03:27:42.142Z,78.30
2022-10-05T03:30:21.714Z,78.30
2022-10-05T03:33:11.847Z,79.10
2022-10-05T03:36:05.382Z,78.10
2022-10-05T03:38:48.575Z,78.00
2022-10-05T03:41:45.977Z,77.90
2022-10-05T03:44:34.139Z,77.90
2022-10-05T03:47:25.680Z,77.90
2022-10-05T03:50:20.014Z,77.90
2022-10-05T03:52:54.619Z,77.80
2022-10-05T03:55:38.963Z,77.80
2022-10-05T03:58:26.073Z,77.70
2022-10-05T04:01:08.505Z,77.60
2022-10-05T04:03:49.890Z,77.60
2022-10-05T04:06:33.643Z,77.60
2022-10-05T04:09:13.004Z,77.60
2022-10-05T04:11:45.756Z,77.60
2022-10-05T04:14:37.075Z,77.60
2022-10-05T04:17:11.888Z,77.50
2022-10-05T04:19:58.854Z,77.50
2022-10-05T04:22:31.734Z,77.40
2022-10-05T04:25:22.724Z,77.30
2022-10-05T04:28:32.166Z,77.40
2022-10-05T04:31:02.590Z,77.30
2022-10-05T04:33:32.007Z,77.30
2022-10-05T04:36:18.609Z,77.30
2022-10-05T04:39:02.519Z,77.30
2022-10-05T04:41:34.271Z,77.30
2022-10-05T04:44:30.903Z,77.30
2022-10-05T04:47:22.236Z,77.30
2022-10-05T04:50:04.068Z,77.30
2022-10-05T04:52:53.084Z,77.10
2022-10-05T04:55:44.699Z,77.00
2022-10-05T04:58:45.313Z,77.00
2022-10-05T05:01:30.935Z,76.90
2022-10-05T05:04:06.269Z,76.90
2022-10-05T05:06:51.275Z,76.90
2022-10-05T05:09:38.920Z,77.70
2022-10-05T05:12:08.602Z,76.80
2022-10-05T05:15:16.087Z,76.70
2022-10-05T05:18:07.768Z,76.60
2022-10-05T05:20:59.264Z,76.60
2022-10-05T05:23:49.101Z,76.50
2022-10-05T05:26:46.166Z,76.60
2022-10-05T05:29:27.032Z,76.30
2022-10-05T05:32:12.588Z,76.20
2022-10-05T05:35:05.028Z,76.10
2022-10-05T05:37:38.679Z,76.00
2022-10-05T05:40:18.132Z,75.90
2022-10-05T05:42:59.062Z,75.80
2022-10-05T05:45:51.586Z,75.80
2022-10-05T05:48:26.114Z,75.80
2022-10-05T05:51:03.620Z,75.60
2022-10-05T05:53:40.103Z,75.70
2022-10-05T05:56:16.604Z,75.70
2022-10-05T05:59:15.567Z,75.70
2022-10-05T06:01:51.082Z,75.50
2022-10-05T06:04:35.126Z,75.40
2022-10-05T06:07:03.466Z,75.40
2022-10-05T06:09:49.724Z,75.40
2022-10-05T06:12:29.935Z,75.30
2022-10-05T06:15:47.932Z,75.30
2022-10-05T06:18:19.380Z,75.30
2022-10-05T06:20:50.614Z,76.50
2022-10-05T06:23:23.826Z,75.70
2022-10-05T06:26:21.573Z,75.80
2022-10-05T06:28:56.500Z,75.80
2022-10-05T06:31:54.201Z,75.70
2022-10-05T06:34:52.887Z,75.70
2022-10-05T06:37:48.043Z,75.90
2022-10-05T06:40:41.737Z,75.80
2022-10-05T06:43:31.349Z,75.80
2022-10-05T06:46:22.729Z,75.80
2022-10-05T06:49:27.958Z,75.80
2022-10-05T06:52:34.470Z,75.70
2022-10-05T06:55:23.843Z,75.70
2022-10-05T06:58:38.835Z,75.70
2022-10-05T07:01:18.195Z,75.80
2022-10-05T07:04:02.743Z,75.70
2022-10-05T07:06:35.936Z,75.70
2022-10-05T07:09:15.667Z,75.70
2022-10-05T07:12:20.610Z,75.70
2022-10-05T07:15:13.612Z,75.60
2022-10-05T07:17:56.282Z,75.60
2022-10-05T07:20:32.272Z,75.60
2022-10-05T07:23:33.628Z,75.50
2022-10-05T07:26:22.093Z,75.40
2022-10-05T07:29:12.682Z,75.30
2022-10-05T07:32:10.787Z,75.30
2022-10-05T07:34:55.258Z,75.40
2022-10-05T07:37:57.590Z,75.30
2022-10-05T07:40:37.872Z,75.40
2022-10-05T07:44:00.405Z,75.30
2022-10-05T07:46:43.606Z,75.30
2022-10-05T07:49:36.119Z,75.40
2022-10-05T07:52:11.403Z,75.50
2022-10-05T07:54:53.698Z,75.40
2022-10-05T07:57:26.153Z,75.30
2022-10-05T07:59:57.511Z,75.30
2022-10-05T08:02:32.548Z,75.30
2022-10-05T08:05:21.233Z,76.20
2022-10-05T08:07:52.187Z,75.30
2022-10-05T08:10:28.656Z,75.10
2022-10-05T08:13:11.960Z,75.20
2022-10-05T08:15:44.705Z,75.30
2022-10-05T08:18:14.594Z,75.10
2022-10-05T08:20:52.671Z,75.00
2022-10-05T08:23:35.967Z,75.00
2022-10-05T08:26:08.431Z,74.90
2022-10-05T08:29:10.296Z,74.90
2022-10-05T08:31:43.939Z,74.80
2022-10-05T08:34:40.795Z,74.70
2022-10-05T08:37:34.003Z,74.70
2022-10-05T08:40:15.851Z,74.40
2022-10-05T08:42:57.214Z,74.50
2022-10-05T08:45:44.946Z,74.50
2022-10-05T08:48:26.148Z,74.30
2022-10-05T08:51:28.160Z,74.40
2022-10-05T08:54:06.715Z,74.40
2022-10-05T08:57:00.622Z,74.20
2022-10-05T09:00:14.079Z,74.00
2022-10-05T09:03:09.088Z,73.80
2022-10-05T09:06:22.238Z,73.80
2022-10-05T09:08:54.412Z,73.70
2022-10-05T09:11:36.141Z,73.30
2022-10-05T09:14:23.538Z,73.30
2022-10-05T09:17:08.363Z,73.40
2022-10-05T09:19:49.256Z,73.20
2022-10-05T09:22:38.234Z,72.90
2022-10-05T09:25:25.134Z,72.70
2022-10-05T09:28:23.363Z,72.70
2022-10-05T09:31:21.499Z,72.30
2022-10-05T09:34:04.784Z,72.10
2022-10-05T09:37:12.637Z,72.20
2022-10-05T09:39:42.968Z,71.70
2022-10-05T09:42:27.640Z,71.50
2022-10-05T09:45:35.791Z,71.30
2022-10-05T09:48:02.369Z,71.00
2022-10-05T09:50:38.189Z,70.90
2022-10-05T09:53:20.620Z,70.70
2022-10-05T09:59:18.786Z,70.30
2022-10-05T10:02:16.195Z,70.10
2022-10-05T10:05:05.519Z,70.10
2022-10-05T10:07:51.960Z,69.60
2022-10-05T10:10:36.128Z,69.50
2022-10-05T10:13:29.896Z,69.40
2022-10-05T10:16:17.219Z,69.30
2022-10-05T10:19:41.369Z,69.40
2022-10-05T10:22:43.193Z,69.40
2022-10-05T10:25:37.931Z,69.50
2022-10-05T10:28:46.624Z,69.50
2022-10-05T10:31:50.547Z,69.60
2022-10-05T10:34:48.497Z,69.50
2022-10-05T10:37:58.419Z,69.70
2022-10-05T10:40:43.782Z,69.80
2022-10-05T10:43:49.199Z,69.70
2022-10-05T10:46:15.799Z,69.70
2022-10-05T10:49:00.859Z,69.90
2022-10-05T10:51:54.604Z,70.80
2022-10-05T10:54:59.278Z,70.10
2022-10-05T10:57:44.173Z,70.20
2022-10-05T11:00:22.222Z,70.20
2022-10-05T11:03:33.070Z,70.30
2022-10-05T11:06:17.202Z,70.30
2022-10-05T11:09:11.831Z,70.30
2022-10-05T11:12:06.195Z,70.40
2022-10-05T11:15:33.998Z,70.40
2022-10-05T11:18:20.281Z,70.60
2022-10-05T11:21:13.927Z,70.60
2022-10-05T11:23:46.287Z,70.80
2022-10-05T11:26:33.032Z,71.00
2022-10-05T11:29:24.307Z,70.90
2022-10-05T11:32:17.940Z,71.00
2022-10-05T11:35:07.188Z,70.80
2022-10-05T11:37:54.643Z,70.60
2022-10-05T11:40:51.069Z,70.50
2022-10-05T11:43:45.288Z,70.40
2022-10-05T11:46:20.840Z,70.30
2022-10-05T11:49:02.615Z,70.20
2022-10-05T11:51:45.791Z,70.30
2022-10-05T11:54:38.319Z,70.00
2022-10-05T11:57:19.800Z,69.80
2022-10-05T12:00:12.777Z,69.70
2022-10-05T12:03:02.173Z,69.20
2022-10-05T12:05:44.194Z,69.10
2022-10-05T12:08:44.679Z,68.90
2022-10-05T12:11:31.243Z,68.90
2022-10-05T12:14:12.588Z,68.80
2022-10-05T12:16:50.876Z,68.50
2022-10-05T12:19:36.570Z,68.30
2022-10-05T12:22:19.890Z,68.40
2022-10-05T12:24:55.540Z,68.30
2022-10-05T12:27:27.581Z,68.10
2022-10-05T12:30:27.380Z,68.00
2022-10-05T12:33:25.394Z,67.70
2022-10-05T12:36:08.068Z,67.90
2022-10-05T12:38:52.801Z,67.70
2022-10-05T12:41:22.216Z,67.40
2022-10-05T12:44:44.481Z,67.20
2022-10-05T12:47:32.604Z,66.70
2022-10-05T12:50:21.101Z,66.40
2022-10-05T12:53:05.969Z,66.80
2022-10-05T12:56:07.441Z,67.00
2022-10-05T12:58:58.416Z,67.10
2022-10-05T13:01:52.902Z,66.80
2022-10-05T13:04:32.933Z,66.80
2022-10-05T13:07:02.708Z,67.00
2022-10-05T13:09:37.488Z,67.00
2022-10-05T13:12:19.004Z,67.30
2022-10-05T13:14:53.718Z,67.40
2022-10-05T13:17:57.797Z,67.50
2022-10-05T13:20:40.436Z,67.50
2022-10-05T13:23:34.773Z,67.70
2022-10-05T13:26:08.837Z,67.40
2022-10-05T13:29:07.357Z,67.60
2022-10-05T13:31:55.673Z,67.30
2022-10-05T13:34:45.357Z,67.70
2022-10-05T13:37:43.234Z,67.60
2022-10-05T13:41:08.035Z,67.50
2022-10-05T13:43:46.467Z,67.40
2022-10-05T13:46:28.385Z,67.40
2022-10-05T13:49:22.836Z,67.50
2022-10-05T13:51:59.299Z,67.70
2022-10-05T13:54:58.863Z,67.70
2022-10-05T13:57:51.454Z,67.60
2022-10-05T14:00:26.318Z,67.20
2022-10-05T14:02:56.562Z,66.90
2022-10-05T14:05:29.453Z,66.70
2022-10-05T14:08:16.795Z,66.90
2022-10-05T14:10:45.995Z,67.00
2022-10-05T14:13:13.308Z,66.60
2022-10-05T14:15:42.338Z,66.50
2022-10-05T14:18:27.177Z,66.50
2022-10-05T14:21:01.112Z,66.70
2022-10-05T14:23:28.755Z,66.50
2022-10-05T14:25:56.201Z,66.50
2022-10-05T14:28:33.749Z,66.20
2022-10-05T14:31:13.842Z,65.90
2022-10-05T14:33:41.611Z,66.00
2022-10-05T14:36:22.413Z,65.80
2022-10-05T14:38:56.133Z,66.10
2022-10-05T14:41:27.276Z,66.20
2022-10-05T14:44:05.809Z,66.00
2022-10-05T14:46:34.758Z,66.10
2022-10-05T14:49:26.022Z,65.90
2022-10-05T14:51:54.607Z,65.60
2022-10-05T14:54:41.165Z,65.80
2022-10-05T14:57:13.907Z,65.60
2022-10-05T14:59:59.970Z,65.50
2022-10-05T15:02:54.341Z,65.60
2022-10-05T15:05:42.163Z,65.60
2022-10-05T15:08:20.203Z,65.50
2022-10-05T15:10:54.852Z,65.20
2022-10-05T15:13:25.533Z,65.50
2022-10-05T15:15:56.761Z,65.50
2022-10-05T15:18:43.030Z,65.50
2022-10-05T15:21:23.768Z,65.60
2022-10-05T15:24:06.099Z,65.90
2022-10-05T15:26:54.430Z,66.10
2022-10-05T15:29:27.514Z,66.20
2022-10-05T15:32:06.391Z,66.30
2022-10-05T15:34:42.982Z,66.60
2022-10-05T15:37:58.043Z,66.70
2022-10-05T15:40:43.190Z,66.60
2022-10-05T15:43:19.647Z,66.90
2022-10-05T15:46:01.457Z,67.00
2022-10-05T15:48:57.936Z,67.00
2022-10-05T15:51:50.078Z,67.00
2022-10-05T15:55:01.174Z,67.10
2022-10-05T15:58:14.853Z,67.20
2022-10-05T16:00:51.814Z,67.30
2022-10-05T16:03:23.305Z,67.40
2022-10-05T16:06:23.704Z,67.50
2022-10-05T16:09:10.115Z,67.60
2022-10-05T16:11:45.575Z,67.60
2022-10-05T16:14:31.528Z,67.80
2022-10-05T16:17:20.720Z,67.90
2022-10-05T16:20:05.851Z,68.60
2022-10-05T16:23:02.570Z,67.80
2022-10-05T16:25:59.120Z,67.80
2022-10-05T16:28:38.272Z,67.80
2022-10-05T16:31:06.589Z,67.80
2022-10-05T16:33:55.079Z,67.90
2022-10-05T16:36:35.606Z,67.90
2022-10-05T16:39:09.736Z,68.00
2022-10-05T16:41:42.843Z,68.00
2022-10-05T16:44:39.403Z,68.10
2022-10-05T16:47:28.880Z,68.20
2022-10-05T16:50:15.806Z,68.30
2022-10-05T16:52:45.781Z,68.50
2022-10-05T16:55:26.849Z,68.50
2022-10-05T16:57:56.764Z,68.50
2022-10-05T17:00:30.652Z,68.70
2022-10-05T17:03:25.394Z,68.80
2022-10-05T17:06:08.706Z,68.90
2022-10-05T17:08:38.849Z,68.90
2022-10-05T17:11:34.515Z,69.10
2022-10-05T17:14:33.370Z,69.20
2022-10-05T17:17:30.854Z,69.40
2022-10-05T17:20:06.932Z,69.60
2022-10-05T17:22:39.714Z,69.60
2022-10-05T17:25:12.182Z,69.70
2022-10-05T17:28:32.467Z,69.70
2022-10-05T17:31:18.538Z,69.70
2022-10-05T17:34:10.393Z,69.70
2022-10-05T17:36:44.242Z,69.80
2022-10-05T17:39:17.869Z,69.80
2022-10-05T17:41:44.842Z,70.00
2022-10-05T17:44:19.130Z,70.20
2022-10-05T17:46:57.659Z,70.20
2022-10-05T17:50:12.112Z,70.30
2022-10-05T17:53:01.904Z,70.40
2022-10-05T17:55:31.688Z,70.50
2022-10-05T17:58:18.265Z,70.60
2022-10-05T18:00:57.045Z,70.60
2022-10-05T18:03:34.492Z,70.70
2022-10-05T18:06:25.864Z,70.80
2022-10-05T18:09:16.844Z,70.80
2022-10-05T18:11:45.731Z,70.80
2022-10-05T18:14:19.914Z,71.00
2022-10-05T18:17:09.855Z,71.10
2022-10-05T18:19:37.590Z,71.10
2022-10-05T18:22:16.139Z,71.20
2022-10-05T18:24:52.888Z,71.20
2022-10-05T18:27:47.806Z,71.30
2022-10-05T18:30:25.861Z,71.40
2022-10-05T18:33:10.876Z,71.30
2022-10-05T18:35:57.671Z,71.40
2022-10-05T18:38:52.886Z,71.40
2022-10-05T18:41:46.784Z,71.50
2022-10-05T18:44:36.062Z,71.60
2022-10-05T18:47:14.695Z,71.60
2022-10-05T18:49:53.163Z,71.70
2022-10-05T18:52:38.537Z,71.80
2022-10-05T18:55:32.591Z,71.80
2022-10-05T18:58:14.701Z,71.90
2022-10-05T19:00:55.569Z,71.90
2022-10-05T19:03:38.383Z,72.10
2022-10-05T19:06:12.974Z,72.10
2022-10-05T19:09:10.238Z,72.20
2022-10-05T19:11:51.814Z,73.10
2022-10-05T19:14:44.032Z,72.50
2022-10-05T19:17:22.296Z,72.70
2022-10-05T19:20:13.554Z,72.90
2022-10-05T19:23:21.093Z,73.20
2022-10-05T19:25:48.173Z,73.50
2022-10-05T19:28:28.168Z,73.80
2022-10-05T19:31:32.033Z,74.00
2022-10-05T19:34:07.718Z,74.10
2022-10-05T19:36:45.959Z,74.30
2022-10-05T19:39:27.007Z,74.40
2022-10-05T19:42:24.854Z,74.70
2022-10-05T19:45:02.666Z,75.50
2022-10-05T19:47:45.217Z,75.20
2022-10-05T19:50:23.907Z,76.80
2022-10-05T19:53:02.375Z,76.70
2022-10-05T19:55:39.510Z,77.20
2022-10-05T19:58:18.357Z,77.50
2022-10-05T20:00:52.803Z,77.90
2022-10-05T20:03:23.482Z,78.10
2022-10-05T20:05:50.427Z,78.40
2022-10-05T20:08:18.976Z,78.50
2022-10-05T20:11:03.421Z,78.90
2022-10-05T20:13:33.328Z,79.00
2022-10-05T20:16:33.464Z,79.10
2022-10-05T20:19:19.183Z,79.40
2022-10-05T20:21:50.353Z,79.50
2022-10-05T20:24:25.685Z,79.30
2022-10-05T20:27:02.723Z,79.50
2022-10-05T20:29:35.819Z,79.50
2022-10-05T20:32:14.111Z,79.70
2022-10-05T20:34:47.683Z,79.90
2022-10-05T20:37:16.568Z,80.00
2022-10-05T20:39:43.961Z,80.10
2022-10-05T20:42:11.345Z,80.30
2022-10-05T20:44:38.297Z,80.40
2022-10-05T20:47:08.295Z,80.40
2022-10-05T20:49:36.490Z,80.50
2022-10-05T20:52:09.545Z,80.50
2022-10-05T20:54:37.876Z,80.70
2022-10-05T20:57:06.127Z,80.80
2022-10-05T20:59:34.296Z,81.00
2022-10-05T21:02:01.524Z,81.10
2022-10-05T21:04:41.002Z,81.20
2022-10-05T21:07:08.184Z,81.20
2022-10-05T21:09:37.852Z,81.20
2022-10-05T21:12:04.694Z,80.50
2022-10-05T21:14:34.092Z,80.40
2022-10-05T21:17:01.803Z,80.40
2022-10-05T21:19:29.336Z,80.70
2022-10-05T21:21:59.219Z,80.80
2022-10-05T21:24:26.181Z,80.80
2022-10-05T21:26:55.163Z,80.80
2022-10-05T21:29:22.068Z,80.80
2022-10-05T21:31:48.705Z,80.80
2022-10-05T21:34:15.718Z,80.90
2022-10-05T21:36:42.331Z,80.90
2022-10-05T21:39:08.858Z,80.90
2022-10-05T21:41:35.504Z,80.80
2022-10-05T21:44:02.148Z,80.90
2022-10-05T21:46:29.501Z,80.90
2022-10-05T21:48:56.177Z,81.10
2022-10-05T21:51:25.737Z,81.20
2022-10-05T21:53:56.968Z,81.30
2022-10-05T21:56:27.837Z,81.20
2022-10-05T21:58:54.639Z,81.20
2022-10-05T22:01:22.886Z,81.30
2022-10-05T22:03:50.111Z,81.40
2022-10-05T22:06:16.735Z,81.70
2022-10-05T22:08:43.296Z,81.60
2022-10-05T22:11:19.325Z,81.40
2022-10-05T22:13:51.498Z,81.80
2022-10-05T22:16:21.174Z,81.90
2022-10-05T22:18:48.939Z,82.00
2022-10-05T22:21:16.732Z,82.00
2022-10-05T22:23:45.515Z,82.30
2022-10-05T22:26:15.859Z,82.30
2022-10-05T22:28:43.544Z,82.60
2022-10-05T22:31:12.393Z,82.80
2022-10-05T22:33:39.736Z,82.80
2022-10-05T22:36:07.911Z,82.90
2022-10-05T22:38:34.660Z,83.10
2022-10-05T22:41:01.432Z,83.10
2022-10-05T22:43:28.175Z,83.10
2022-10-05T22:45:55.928Z,83.20
2022-10-05T22:48:22.781Z,83.20
2022-10-05T22:50:49.543Z,83.30
2022-10-05T22:53:16.293Z,83.50
2022-10-05T22:55:42.928Z,83.60
2022-10-05T22:58:09.588Z,83.60
2022-10-05T23:00:57.145Z,83.40
2022-10-05T23:03:22.920Z,83.60
2022-10-05T23:05:55.752Z,83.60
2022-10-05T23:08:22.375Z,83.50
2022-10-05T23:10:48.917Z,83.50
2022-10-05T23:13:15.651Z,83.30
2022-10-05T23:15:42.398Z,83.50
2022-10-05T23:18:09.006Z,83.60
2022-10-05T23:20:35.556Z,83.60
2022-10-05T23:23:02.195Z,83.40
2022-10-05T23:25:28.738Z,83.30
2022-10-05T23:27:55.413Z,83.20
2022-10-05T23:30:22.094Z,83.30
2022-10-05T23:32:48.727Z,83.40
2022-10-05T23:35:15.306Z,83.40
2022-10-05T23:37:44.263Z,83.30
2022-10-05T23:40:13.778Z,83.40
2022-10-05T23:42:41.380Z,83.20
2022-10-05T23:45:09.975Z,83.00
2022-10-05T23:47:36.876Z,82.90
2022-10-05T23:50:06.794Z,82.80
2022-10-05T23:52:34.838Z,82.70
2022-10-05T23:55:03.169Z,82.70
2022-10-05T23:57:29.804Z,82.60
2022-10-05T23:59:56.394Z,82.70
